Time;durP1;ratioP1;P1;durP2;ratioP2;P2;SDS_P1;SDS_P2;PMS_P1;PMS_P2;Temp;Humidity;BMP_temperature;BMP_pressure;BME280_temperature;BME280_humidity;BME280_pressure;Samples;Min_cycle;Max_cycle;Signal;HPM_P1;HPM_P2
2021/11/27 00:00:26;;;;;;;2.97;1.30;;;;;;;;;;6170330;23;20351;-73
2021/11/27 00:02:52;;;;;;;4.55;1.20;;;;;;;;;;6177251;23;19997;-74
2021/11/27 00:05:18;;;;;;;3.92;1.30;;;;;;;;;;6178280;23;20001;-73
2021/11/27 00:07:45;;;;;;;2.75;1.30;;;;;;;;;;6178115;23;20361;-72
2021/11/27 00:10:13;;;;;;;2.47;1.08;;;;;;;;;;6157769;23;19999;-72
2021/11/27 00:12:40;;;;;;;3.92;1.30;;;;;;;;;;6176646;23;20487;-73
2021/11/27 00:15:07;;;;;;;2.63;1.23;;;;;;;;;;6178628;23;20318;-73
2021/11/27 00:17:33;;;;;;;3.97;1.05;;;;;;;;;;6178234;23;20005;-73
2021/11/27 00:20:00;;;;;;;3.08;1.35;;;;;;;;;;6157774;23;20350;-74
2021/11/27 00:22:26;;;;;;;2.90;1.20;;;;;;;;;;6176029;23;20012;-72
2021/11/27 00:24:52;;;;;;;3.13;1.25;;;;;;;;;;6178001;23;20001;-73
2021/11/27 00:27:18;;;;;;;4.93;1.75;;;;;;;;;;6178819;23;20010;-73
2021/11/27 00:29:45;;;;;;;3.45;1.13;;;;;;;;;;6160350;23;20560;-74
2021/11/27 00:32:11;;;;;;;2.40;1.33;;;;;;;;;;6178123;23;20013;-73
2021/11/27 00:34:37;;;;;;;1.73;1.23;;;;;;;;;;6175009;23;20017;-73
2021/11/27 00:37:03;;;;;;;3.25;1.40;;;;;;;;;;6177949;23;20001;-73
2021/11/27 00:39:30;;;;;;;8.55;1.50;;;;;;;;;;6163651;23;20005;-73
2021/11/27 00:41:56;;;;;;;3.30;1.30;;;;;;;;;;6171724;23;20036;-73
2021/11/27 00:44:22;;;;;;;3.72;1.27;;;;;;;;;;6178419;23;20075;-73
2021/11/27 00:46:49;;;;;;;3.55;1.17;;;;;;;;;;6176210;23;20005;-74
2021/11/27 00:49:15;;;;;;;2.10;1.10;;;;;;;;;;6163591;23;20009;-74
2021/11/27 00:51:42;;;;;;;2.60;1.20;;;;;;;;;;6172081;23;20449;-73
2021/11/27 00:54:08;;;;;;;3.60;1.20;;;;;;;;;;6177007;23;20014;-73
2021/11/27 00:56:35;;;;;;;4.75;1.10;;;;;;;;;;6151588;23;20359;-73
2021/11/27 00:59:01;;;;;;;4.43;2.17;;;;;;;;;;6164123;23;20084;-73
2021/11/27 01:01:30;;;;;;;4.38;1.17;;;;;;;;;;6165862;23;20013;-73
2021/11/27 01:03:56;;;;;;;6.35;1.70;;;;;;;;;;6176320;23;20001;-73
2021/11/27 01:06:23;;;;;;;2.20;1.15;;;;;;;;;;6176905;23;20690;-74
2021/11/27 01:08:54;;;;;;;5.45;1.80;;;;;;;;;;6169562;23;19997;-74
2021/11/27 01:11:25;;;;;;;3.20;1.50;;;;;;;;;;6165557;23;19997;-74
2021/11/27 01:13:53;;;;;;;7.28;1.70;;;;;;;;;;6177698;23;20005;-72
2021/11/27 01:16:20;;;;;;;3.03;1.20;;;;;;;;;;6175323;23;20516;-73
2021/11/27 01:18:47;;;;;;;5.60;1.33;;;;;;;;;;6142349;23;20501;-73
2021/11/27 01:21:16;;;;;;;3.10;1.38;;;;;;;;;;6165755;23;20005;-74
2021/11/27 01:23:43;;;;;;;4.18;1.30;;;;;;;;;;6175911;23;20067;-72
2021/11/27 01:26:09;;;;;;;2.00;1.20;;;;;;;;;;6177726;23;20048;-72
2021/11/27 01:28:36;;;;;;;2.05;1.13;;;;;;;;;;6169810;23;20020;-72
2021/11/27 01:31:02;;;;;;;2.38;0.80;;;;;;;;;;6165649;23;20007;-73
2021/11/27 01:33:30;;;;;;;1.60;1.13;;;;;;;;;;6174385;23;20005;-74
2021/11/27 01:35:56;;;;;;;2.15;1.45;;;;;;;;;;6151659;23;20056;-73
2021/11/27 01:38:23;;;;;;;6.18;1.35;;;;;;;;;;6175911;23;20009;-73
2021/11/27 01:40:49;;;;;;;6.88;1.50;;;;;;;;;;6159384;23;20023;-73
2021/11/27 01:43:16;;;;;;;5.53;1.40;;;;;;;;;;6150103;23;20001;-73
2021/11/27 01:45:42;;;;;;;6.07;1.50;;;;;;;;;;6177309;23;20012;-73
2021/11/27 01:48:14;;;;;;;3.10;1.52;;;;;;;;;;6177311;23;20008;-74
2021/11/27 01:50:49;;;;;;;5.53;1.85;;;;;;;;;;6157686;23;20421;-73
2021/11/27 01:53:16;;;;;;;2.65;1.20;;;;;;;;;;6177607;23;20001;-73
2021/11/27 01:55:42;;;;;;;4.32;1.27;;;;;;;;;;6175610;23;20303;-73
2021/11/27 01:58:09;;;;;;;3.28;2.03;;;;;;;;;;6177428;23;20009;-73
2021/11/27 02:00:41;;;;;;;3.65;1.38;;;;;;;;;;6158299;23;20027;-73
2021/11/27 02:03:07;;;;;;;3.15;1.25;;;;;;;;;;6176405;23;20001;-72
2021/11/27 02:05:34;;;;;;;11.63;1.60;;;;;;;;;;6176110;23;20012;-72
2021/11/27 02:08:01;;;;;;;3.05;1.38;;;;;;;;;;6178250;23;20001;-74
2021/11/27 02:10:28;;;;;;;6.45;1.35;;;;;;;;;;6159134;23;20048;-73
2021/11/27 02:12:54;;;;;;;3.50;1.10;;;;;;;;;;6179530;23;20005;-73
2021/11/27 02:15:20;;;;;;;3.72;1.38;;;;;;;;;;6179455;23;20422;-73
2021/11/27 02:17:47;;;;;;;4.10;1.10;;;;;;;;;;6179693;23;20013;-73
2021/11/27 02:20:13;;;;;;;8.88;1.50;;;;;;;;;;6153650;23;20334;-73
2021/11/27 02:22:39;;;;;;;2.47;1.20;;;;;;;;;;6178933;23;20391;-73
2021/11/27 02:25:09;;;;;;;3.72;1.40;;;;;;;;;;6179427;23;20529;-73
2021/11/27 02:27:35;;;;;;;4.63;1.70;;;;;;;;;;6177878;23;20016;-72
2021/11/27 02:30:01;;;;;;;8.18;1.50;;;;;;;;;;6159255;23;20076;-73
2021/11/27 02:32:27;;;;;;;3.63;1.33;;;;;;;;;;6179268;23;19997;-74
2021/11/27 02:34:54;;;;;;;4.45;1.65;;;;;;;;;;6178084;23;20598;-74
2021/11/27 02:37:20;;;;;;;4.35;1.20;;;;;;;;;;6179375;23;20001;-73
2021/11/27 02:39:46;;;;;;;4.78;1.58;;;;;;;;;;6157498;23;20001;-73
2021/11/27 02:42:13;;;;;;;2.05;1.23;;;;;;;;;;6178481;23;20019;-73
2021/11/27 02:44:39;;;;;;;4.30;1.70;;;;;;;;;;6174578;23;20005;-74
2021/11/27 02:47:07;;;;;;;4.55;1.15;;;;;;;;;;6173934;23;20009;-74
2021/11/27 02:49:33;;;;;;;6.40;1.90;;;;;;;;;;6159263;23;20001;-73
2021/11/27 02:51:59;;;;;;;2.95;1.30;;;;;;;;;;6165564;23;20016;-73
2021/11/27 02:54:28;;;;;;;4.22;1.10;;;;;;;;;;6146704;23;20033;-73
2021/11/27 02:56:55;;;;;;;3.35;1.33;;;;;;;;;;6172904;23;20009;-73
2021/11/27 02:59:23;;;;;;;3.80;1.20;;;;;;;;;;6159378;23;20001;-72
2021/11/27 03:01:50;;;;;;;2.78;1.30;;;;;;;;;;6138983;23;20398;-74
2021/11/27 03:04:17;;;;;;;4.80;1.20;;;;;;;;;;6145862;23;20005;-74
2021/11/27 03:06:45;;;;;;;3.00;1.25;;;;;;;;;;6172911;23;20009;-74
2021/11/27 03:09:13;;;;;;;3.90;1.20;;;;;;;;;;6158177;23;20568;-73
2021/11/27 03:11:39;;;;;;;3.55;1.52;;;;;;;;;;6168175;23;20011;-74
2021/11/27 03:14:05;;;;;;;3.88;1.20;;;;;;;;;;6173531;23;20330;-73
2021/11/27 03:16:32;;;;;;;7.50;1.65;;;;;;;;;;6171566;23;20652;-74
2021/11/27 03:18:59;;;;;;;4.40;1.33;;;;;;;;;;6138686;23;20338;-72
2021/11/27 03:21:25;;;;;;;4.10;1.10;;;;;;;;;;6158425;23;20020;-73
2021/11/27 03:23:52;;;;;;;3.03;1.33;;;;;;;;;;6172876;23;20017;-73
2021/11/27 03:26:18;;;;;;;6.53;2.22;;;;;;;;;;6170724;23;20043;-73
2021/11/27 03:28:46;;;;;;;4.95;1.25;;;;;;;;;;6165048;23;20005;-73
2021/11/27 03:31:12;;;;;;;4.13;1.13;;;;;;;;;;6161108;23;20430;-74
2021/11/27 03:33:39;;;;;;;4.95;1.15;;;;;;;;;;6172255;23;20009;-74
2021/11/27 03:36:05;;;;;;;1.80;1.05;;;;;;;;;;6171201;23;20521;-73
2021/11/27 03:38:32;;;;;;;5.15;1.48;;;;;;;;;;6168589;23;20001;-73
2021/11/27 03:40:58;;;;;;;2.00;1.20;;;;;;;;;;6160682;23;20087;-73
2021/11/27 03:43:25;;;;;;;5.00;1.25;;;;;;;;;;6172228;23;20008;-73
2021/11/27 03:45:51;;;;;;;4.82;1.38;;;;;;;;;;6171389;23;20065;-73
2021/11/27 03:48:24;;;;;;;8.13;1.33;;;;;;;;;;6172791;23;20027;-73
2021/11/27 03:50:51;;;;;;;5.85;1.27;;;;;;;;;;6154836;23;20003;-73
2021/11/27 03:53:20;;;;;;;4.40;1.40;;;;;;;;;;6172542;23;20058;-73
2021/11/27 03:55:46;;;;;;;4.75;1.35;;;;;;;;;;6172638;23;20493;-73
2021/11/27 03:58:13;;;;;;;5.05;1.27;;;;;;;;;;6170833;23;20015;-72
2021/11/27 04:00:40;;;;;;;4.93;1.25;;;;;;;;;;6152437;23;20005;-74
2021/11/27 04:03:07;;;;;;;2.72;1.30;;;;;;;;;;6168647;23;20812;-73
2021/11/27 04:05:34;;;;;;;3.40;1.05;;;;;;;;;;6142889;23;20422;-73
2021/11/27 04:08:00;;;;;;;3.25;1.15;;;;;;;;;;6169188;23;20144;-73
2021/11/27 04:10:27;;;;;;;2.92;1.25;;;;;;;;;;6147014;23;20015;-75
2021/11/27 04:12:53;;;;;;;4.60;1.20;;;;;;;;;;6169777;23;20143;-73
2021/11/27 04:15:19;;;;;;;4.32;1.67;;;;;;;;;;6169746;23;20454;-73
2021/11/27 04:17:46;;;;;;;1.70;0.98;;;;;;;;;;6169459;23;20008;-74
2021/11/27 04:20:12;;;;;;;4.60;1.38;;;;;;;;;;6146903;23;20001;-72
2021/11/27 04:22:39;;;;;;;2.13;1.35;;;;;;;;;;6167170;23;20096;-73
2021/11/27 04:25:05;;;;;;;2.80;1.30;;;;;;;;;;6169397;23;20009;-73
2021/11/27 04:27:31;;;;;;;3.58;1.20;;;;;;;;;;6169604;23;19997;-73
2021/11/27 04:29:57;;;;;;;3.05;1.02;;;;;;;;;;6148931;23;20454;-73
2021/11/27 04:32:24;;;;;;;3.08;1.25;;;;;;;;;;6167228;23;19997;-73
2021/11/27 04:34:50;;;;;;;9.00;1.63;;;;;;;;;;6168101;23;20110;-73
2021/11/27 04:37:16;;;;;;;4.50;0.98;;;;;;;;;;6168939;23;20024;-73
2021/11/27 04:39:44;;;;;;;5.10;1.10;;;;;;;;;;6155073;23;20079;-74
2021/11/27 04:42:10;;;;;;;3.13;1.40;;;;;;;;;;6168155;23;20017;-74
2021/11/27 04:44:36;;;;;;;3.22;1.10;;;;;;;;;;6167523;23;20007;-74
2021/11/27 04:47:02;;;;;;;5.32;1.17;;;;;;;;;;6142720;23;20013;-73
2021/11/27 04:49:29;;;;;;;4.43;1.70;;;;;;;;;;6155008;23;20001;-73
2021/11/27 04:51:55;;;;;;;4.75;1.60;;;;;;;;;;6162828;23;20667;-73
2021/11/27 04:54:21;;;;;;;4.45;1.63;;;;;;;;;;6170028;23;20076;-73
2021/11/27 04:56:47;;;;;;;6.53;2.67;;;;;;;;;;6166874;23;20005;-73
2021/11/27 04:59:13;;;;;;;3.72;1.90;;;;;;;;;;6154881;23;20378;-72
2021/11/27 05:01:39;;;;;;;4.50;1.50;;;;;;;;;;6162421;23;20457;-73
2021/11/27 05:04:06;;;;;;;4.00;1.55;;;;;;;;;;6165996;23;20600;-74
2021/11/27 05:06:32;;;;;;;6.75;1.77;;;;;;;;;;6168632;23;20013;-74
2021/11/27 05:08:58;;;;;;;5.95;2.00;;;;;;;;;;6134166;23;20009;-73
2021/11/27 05:11:24;;;;;;;6.75;1.75;;;;;;;;;;6156393;23;20016;-71
2021/11/27 05:13:50;;;;;;;5.60;1.88;;;;;;;;;;6167864;23;20076;-74
2021/11/27 05:16:16;;;;;;;6.40;2.03;;;;;;;;;;6169724;23;20009;-73
2021/11/27 05:18:43;;;;;;;10.27;2.30;;;;;;;;;;6161361;23;20017;-74
2021/11/27 05:21:10;;;;;;;9.73;2.15;;;;;;;;;;6156110;23;20096;-74
2021/11/27 05:23:36;;;;;;;5.43;2.30;;;;;;;;;;6167556;23;20001;-74
2021/11/27 05:26:03;;;;;;;7.50;2.25;;;;;;;;;;6167010;23;20009;-74
2021/11/27 05:28:29;;;;;;;6.70;2.40;;;;;;;;;;6166501;23;20005;-74
2021/11/27 05:30:55;;;;;;;12.50;2.55;;;;;;;;;;6150621;23;20334;-73
2021/11/27 05:33:46;;;;;;;11.77;3.40;;;;;;;;;;6166089;23;20013;-73
2021/11/27 05:36:09;;;;;;;7.07;2.15;;;;;;;;;;6166297;23;20035;-74
2021/11/27 05:38:35;;;;;;;6.30;2.75;;;;;;;;;;6160122;23;20652;-73
2021/11/27 05:41:01;;;;;;;7.40;2.15;;;;;;;;;;6156178;23;20012;-74
2021/11/27 05:43:27;;;;;;;10.70;2.55;;;;;;;;;;6167783;23;20020;-74
2021/11/27 05:45:53;;;;;;;8.45;2.88;;;;;;;;;;6168948;23;20007;-73
2021/11/27 05:48:19;;;;;;;9.77;3.22;;;;;;;;;;6168850;23;20020;-73
2021/11/27 05:50:45;;;;;;;12.80;3.53;;;;;;;;;;6148522;23;20065;-73
2021/11/27 05:53:13;;;;;;;10.02;3.45;;;;;;;;;;6168466;23;20067;-74
2021/11/27 05:55:39;;;;;;;12.13;4.07;;;;;;;;;;6168394;23;20005;-73
2021/11/27 05:58:06;;;;;;;7.25;3.15;;;;;;;;;;6169549;23;20085;-74
2021/11/27 06:00:33;;;;;;;14.50;2.97;;;;;;;;;;6148879;23;19997;-73
2021/11/27 06:02:59;;;;;;;11.30;3.38;;;;;;;;;;6165357;23;20005;-73
2021/11/27 06:05:28;;;;;;;5.68;2.85;;;;;;;;;;6168777;23;20016;-73
2021/11/27 06:07:55;;;;;;;9.88;3.25;;;;;;;;;;6168134;23;20009;-74
2021/11/27 06:10:21;;;;;;;10.55;3.00;;;;;;;;;;6146637;23;20005;-73
2021/11/27 06:12:47;;;;;;;12.38;2.85;;;;;;;;;;6168603;23;20333;-74
2021/11/27 06:15:13;;;;;;;10.38;3.22;;;;;;;;;;6168904;23;20070;-74
2021/11/27 06:17:39;;;;;;;10.57;2.78;;;;;;;;;;6168674;23;20008;-73
2021/11/27 06:20:06;;;;;;;13.02;2.60;;;;;;;;;;6147043;23;20009;-73
2021/11/27 06:22:32;;;;;;;9.80;3.22;;;;;;;;;;6165887;23;20625;-74
2021/11/27 06:24:58;;;;;;;15.88;2.80;;;;;;;;;;6168958;23;20001;-73
2021/11/27 06:27:25;;;;;;;12.75;3.05;;;;;;;;;;6167606;23;20207;-73
2021/11/27 06:29:51;;;;;;;7.43;3.47;;;;;;;;;;6146798;23;20076;-74
2021/11/27 06:32:23;;;;;;;17.23;3.50;;;;;;;;;;6167057;23;20040;-74
2021/11/27 06:34:51;;;;;;;14.63;4.40;;;;;;;;;;6166395;23;20040;-73
2021/11/27 06:37:17;;;;;;;10.27;3.45;;;;;;;;;;6167430;23;20844;-73
2021/11/27 06:39:43;;;;;;;10.50;2.70;;;;;;;;;;6153356;23;20012;-74
2021/11/27 06:42:09;;;;;;;18.25;3.08;;;;;;;;;;6162246;23;20020;-73
2021/11/27 06:44:35;;;;;;;11.73;2.90;;;;;;;;;;6168351;23;20084;-75
2021/11/27 06:47:01;;;;;;;10.57;2.97;;;;;;;;;;6168695;23;20005;-74
2021/11/27 06:49:28;;;;;;;12.98;3.17;;;;;;;;;;6156777;23;20001;-74
2021/11/27 06:51:55;;;;;;;9.68;3.13;;;;;;;;;;6163015;23;20080;-74
2021/11/27 06:54:21;;;;;;;11.57;2.83;;;;;;;;;;6171109;23;20001;-74
2021/11/27 06:56:47;;;;;;;13.95;3.90;;;;;;;;;;6171133;23;20001;-73
2021/11/27 06:59:14;;;;;;;12.35;3.03;;;;;;;;;;6163659;23;20480;-73
2021/11/27 07:01:40;;;;;;;21.73;2.83;;;;;;;;;;6155854;23;20584;-74
2021/11/27 07:04:06;;;;;;;12.63;2.92;;;;;;;;;;6169836;23;20001;-75
2021/11/27 07:06:32;;;;;;;17.70;3.63;;;;;;;;;;6171555;23;20489;-74
2021/11/27 07:08:59;;;;;;;8.63;3.08;;;;;;;;;;6164457;23;20005;-77
2021/11/27 07:11:25;;;;;;;13.93;2.75;;;;;;;;;;6162168;23;20005;-78
2021/11/27 07:13:51;;;;;;;11.02;3.85;;;;;;;;;;6171175;23;20446;-77
2021/11/27 07:16:17;;;;;;;13.95;3.00;;;;;;;;;;6169197;23;20025;-77
2021/11/27 07:18:43;;;;;;;12.70;3.65;;;;;;;;;;6160810;23;20005;-78
2021/11/27 07:21:09;;;;;;;12.77;3.00;;;;;;;;;;6157672;23;20019;-75
2021/11/27 07:23:37;;;;;;;16.00;2.88;;;;;;;;;;6168554;23;20061;-74
2021/11/27 07:26:03;;;;;;;15.38;3.00;;;;;;;;;;6169690;23;20005;-75
2021/11/27 07:28:29;;;;;;;8.23;2.15;;;;;;;;;;6141092;23;20012;-75
2021/11/27 07:30:55;;;;;;;5.53;2.30;;;;;;;;;;6126783;23;20013;-74
2021/11/27 07:33:21;;;;;;;7.88;2.30;;;;;;;;;;6169033;23;19997;-75
2021/11/27 07:35:50;;;;;;;10.15;2.78;;;;;;;;;;6171098;23;19997;-76
2021/11/27 07:38:16;;;;;;;10.50;1.60;;;;;;;;;;6169165;23;20009;-76
2021/11/27 07:40:42;;;;;;;4.13;1.58;;;;;;;;;;6147880;23;20013;-76
2021/11/27 07:43:08;;;;;;;5.75;1.50;;;;;;;;;;6171264;23;20085;-76
2021/11/27 07:45:37;;;;;;;6.90;1.50;;;;;;;;;;6172391;23;20027;-76
2021/11/27 07:48:03;;;;;;;5.88;1.35;;;;;;;;;;6171326;23;20472;-75
2021/11/27 07:50:29;;;;;;;3.25;1.33;;;;;;;;;;6153008;23;20458;-75
2021/11/27 07:52:56;;;;;;;7.90;2.55;;;;;;;;;;6172840;23;20005;-76
2021/11/27 07:55:22;;;;;;;5.65;2.08;;;;;;;;;;6173077;23;20009;-76
2021/11/27 07:57:48;;;;;;;6.88;2.72;;;;;;;;;;6173019;23;20001;-76
2021/11/27 08:00:15;;;;;;;7.47;3.90;;;;;;;;;;6150623;23;20601;-75
2021/11/27 08:02:41;;;;;;;6.82;2.78;;;;;;;;;;6171980;23;20036;-75
2021/11/27 08:05:07;;;;;;;3.92;1.48;;;;;;;;;;6171614;23;20073;-76
2021/11/27 08:07:35;;;;;;;3.25;1.65;;;;;;;;;;6172596;23;20092;-75
2021/11/27 08:10:02;;;;;;;3.78;1.55;;;;;;;;;;6152820;23;20001;-75
2021/11/27 08:12:28;;;;;;;3.58;1.13;;;;;;;;;;6172227;23;20005;-75
2021/11/27 08:14:55;;;;;;;6.05;1.27;;;;;;;;;;6171051;23;20055;-76
2021/11/27 08:17:21;;;;;;;3.03;1.27;;;;;;;;;;6172806;23;20001;-75
2021/11/27 08:19:47;;;;;;;4.75;1.50;;;;;;;;;;6153074;23;20027;-75
2021/11/27 08:22:13;;;;;;;4.30;2.03;;;;;;;;;;6172293;23;20391;-75
2021/11/27 08:24:39;;;;;;;3.42;1.20;;;;;;;;;;6172843;23;20055;-76
2021/11/27 08:27:06;;;;;;;8.20;1.40;;;;;;;;;;6170510;23;20228;-74
2021/11/27 08:29:32;;;;;;;5.57;1.98;;;;;;;;;;6158247;23;20001;-76
2021/11/27 08:31:58;;;;;;;2.42;1.08;;;;;;;;;;6166346;23;20001;-75
2021/11/27 08:34:24;;;;;;;1.23;0.85;;;;;;;;;;6171357;23;20024;-76
2021/11/27 08:36:50;;;;;;;3.53;1.40;;;;;;;;;;6172927;23;20005;-75
2021/11/27 08:39:17;;;;;;;6.45;1.60;;;;;;;;;;6158156;23;20007;-75
2021/11/27 08:41:43;;;;;;;6.38;1.85;;;;;;;;;;6166021;23;20332;-75
2021/11/27 08:44:09;;;;;;;11.30;2.17;;;;;;;;;;6172482;23;20438;-75
2021/11/27 08:46:36;;;;;;;10.38;2.83;;;;;;;;;;6169519;23;20016;-75
2021/11/27 08:49:02;;;;;;;5.20;2.03;;;;;;;;;;6135414;23;20001;-75
2021/11/27 08:51:28;;;;;;;15.82;2.67;;;;;;;;;;6158823;23;20012;-75
2021/11/27 08:53:55;;;;;;;9.93;2.20;;;;;;;;;;6173038;23;20004;-75
2021/11/27 08:56:21;;;;;;;9.55;2.65;;;;;;;;;;6172715;23;20009;-75
2021/11/27 08:58:47;;;;;;;8.45;2.47;;;;;;;;;;6138363;23;20152;-75
2021/11/27 09:01:13;;;;;;;11.98;3.08;;;;;;;;;;6160192;23;20005;-75
2021/11/27 09:03:41;;;;;;;11.15;2.65;;;;;;;;;;6171446;23;20093;-76
2021/11/27 09:06:07;;;;;;;10.23;2.72;;;;;;;;;;6170997;23;20299;-75
2021/11/27 09:08:33;;;;;;;18.08;3.47;;;;;;;;;;6164521;23;20009;-75
2021/11/27 09:10:59;;;;;;;8.80;2.65;;;;;;;;;;6159926;23;20007;-75
2021/11/27 09:13:26;;;;;;;6.63;2.58;;;;;;;;;;6170360;23;20024;-75
2021/11/27 09:15:52;;;;;;;11.07;3.92;;;;;;;;;;6171433;23;20005;-75
2021/11/27 09:18:18;;;;;;;13.00;3.08;;;;;;;;;;6172433;23;20033;-75
2021/11/27 09:20:44;;;;;;;9.93;3.17;;;;;;;;;;6151618;23;20001;-75
2021/11/27 09:23:10;;;;;;;11.02;4.05;;;;;;;;;;6172159;23;20020;-76
2021/11/27 09:25:36;;;;;;;13.63;4.90;;;;;;;;;;6143711;23;20009;-75
2021/11/27 09:28:03;;;;;;;9.52;3.88;;;;;;;;;;6172026;23;20001;-74
2021/11/27 09:30:30;;;;;;;7.53;4.10;;;;;;;;;;6151978;23;20001;-75
2021/11/27 09:32:56;;;;;;;11.77;4.07;;;;;;;;;;6169772;23;20011;-75
2021/11/27 09:35:23;;;;;;;8.10;3.03;;;;;;;;;;6171740;23;20017;-75
2021/11/27 09:37:49;;;;;;;8.35;2.92;;;;;;;;;;6171872;23;20593;-75
2021/11/27 09:40:16;;;;;;;12.02;3.00;;;;;;;;;;6149896;23;20072;-74
2021/11/27 09:42:43;;;;;;;9.85;3.05;;;;;;;;;;6171227;23;20032;-75
2021/11/27 09:45:09;;;;;;;7.30;2.38;;;;;;;;;;6171571;23;20005;-75
2021/11/27 09:47:36;;;;;;;12.43;2.65;;;;;;;;;;6172047;23;20020;-75
2021/11/27 09:50:04;;;;;;;7.05;2.40;;;;;;;;;;6146276;23;20008;-75
2021/11/27 09:52:31;;;;;;;11.85;2.42;;;;;;;;;;6171598;23;20005;-75
2021/11/27 09:54:57;;;;;;;10.07;2.50;;;;;;;;;;6172015;23;20005;-75
2021/11/27 09:57:24;;;;;;;8.23;1.80;;;;;;;;;;6171881;23;20051;-75
2021/11/27 09:59:50;;;;;;;6.18;1.90;;;;;;;;;;6151601;23;20001;-75
2021/11/27 10:02:17;;;;;;;7.03;1.88;;;;;;;;;;6171931;23;20581;-75
2021/11/27 10:04:49;;;;;;;6.72;1.80;;;;;;;;;;6168895;23;20069;-75
2021/11/27 10:07:17;;;;;;;13.68;1.98;;;;;;;;;;6172468;23;20580;-75
2021/11/27 10:09:45;;;;;;;9.98;2.72;;;;;;;;;;6157248;23;20147;-75
2021/11/27 10:12:11;;;;;;;9.32;2.22;;;;;;;;;;6163531;23;19998;-75
2021/11/27 10:14:39;;;;;;;14.10;2.67;;;;;;;;;;6171599;23;20001;-75
2021/11/27 10:17:13;;;;;;;13.10;2.92;;;;;;;;;;6171733;23;20005;-74
2021/11/27 10:19:42;;;;;;;4.65;1.63;;;;;;;;;;6157625;23;20008;-76
2021/11/27 10:22:10;;;;;;;8.27;2.40;;;;;;;;;;6167206;23;20017;-76
2021/11/27 10:24:37;;;;;;;4.70;1.35;;;;;;;;;;6169303;23;19997;-75
2021/11/27 10:27:04;;;;;;;3.55;1.90;;;;;;;;;;6171575;23;20005;-76
2021/11/27 10:29:35;;;;;;;1.80;1.02;;;;;;;;;;6159083;23;20029;-76
2021/11/27 10:32:11;;;;;;;1.80;0.55;;;;;;;;;;6167655;23;20442;-75
2021/11/27 10:34:38;;;;;;;1.05;0.50;;;;;;;;;;6173043;23;20915;-75
2021/11/27 10:37:22;;;;;;;1.00;0.30;;;;;;;;;;6172074;23;20575;-75
2021/11/27 10:40:02;;;;;;;0.98;0.30;;;;;;;;;;6159101;23;19993;-75
2021/11/27 10:42:29;;;;;;;1.17;0.32;;;;;;;;;;6167253;23;20039;-75
2021/11/27 10:44:56;;;;;;;1.27;0.50;;;;;;;;;;6173350;23;20059;-76
2021/11/27 10:47:22;;;;;;;0.95;0.50;;;;;;;;;;6173202;23;20354;-75
2021/11/27 10:49:49;;;;;;;1.55;0.60;;;;;;;;;;6152191;23;20001;-75
2021/11/27 10:52:17;;;;;;;1.23;0.60;;;;;;;;;;6173613;23;20009;-74
2021/11/27 10:54:53;;;;;;;2.38;0.65;;;;;;;;;;6173502;23;20063;-76
2021/11/27 10:57:31;;;;;;;4.53;2.65;;;;;;;;;;6173181;23;19997;-75
2021/11/27 10:59:58;;;;;;;4.75;1.50;;;;;;;;;;6153349;23;20009;-74
2021/11/27 11:02:26;;;;;;;1.35;0.95;;;;;;;;;;6171318;23;20039;-75
2021/11/27 11:05:00;;;;;;;1.27;0.60;;;;;;;;;;6172609;23;20311;-75
2021/11/27 11:07:28;;;;;;;2.63;0.70;;;;;;;;;;6173351;23;20013;-74
2021/11/27 11:10:01;;;;;;;3.35;0.73;;;;;;;;;;6153728;23;19997;-75
2021/11/27 11:12:32;;;;;;;2.55;0.60;;;;;;;;;;6171540;23;20084;-75
2021/11/27 11:15:28;;;;;;;1.77;0.50;;;;;;;;;;6173648;23;20005;-75
2021/11/27 11:18:14;;;;;;;4.43;0.95;;;;;;;;;;6153946;23;20008;-75
2021/11/27 11:20:47;;;;;;;1.52;0.52;;;;;;;;;;6152942;23;20324;-76
2021/11/27 11:23:16;;;;;;;1.70;0.40;;;;;;;;;;6173119;23;20009;-75
2021/11/27 11:26:21;;;;;;;1.92;0.88;;;;;;;;;;6171190;23;20549;-73
2021/11/27 11:28:58;;;;;;;1.90;0.75;;;;;;;;;;6073218;23;20011;-82
2021/11/27 11:31:29;;;;;;;12.82;1.15;;;;;;;;;;6044832;23;20007;-82
2021/11/27 11:33:57;;;;;;;5.10;0.80;;;;;;;;;;6133358;23;20025;-75
2021/11/27 11:36:24;;;;;;;5.72;1.00;;;;;;;;;;6172242;23;19997;-86
2021/11/27 11:38:51;;;;;;;4.25;0.70;;;;;;;;;;6161892;23;20076;-75
2021/11/27 11:41:19;;;;;;;2.15;0.95;;;;;;;;;;6160200;23;20052;-74
2021/11/27 11:43:45;;;;;;;7.38;1.20;;;;;;;;;;6171005;23;20016;-74
2021/11/27 11:46:12;;;;;;;2.60;0.90;;;;;;;;;;6170672;23;20008;-76
2021/11/27 11:48:39;;;;;;;4.15;0.82;;;;;;;;;;6162397;23;20015;-76
2021/11/27 11:51:31;;;;;;;5.18;1.25;;;;;;;;;;6160007;23;20005;-76
2021/11/27 11:53:58;;;;;;;3.58;1.00;;;;;;;;;;6171053;23;20013;-73
2021/11/27 11:56:36;;;;;;;3.70;0.95;;;;;;;;;;6171154;23;20057;-72
2021/11/27 11:59:22;;;;;;;4.55;1.10;;;;;;;;;;6162779;23;20004;-73
2021/11/27 12:02:12;;;;;;;4.32;1.00;;;;;;;;;;6159354;23;20016;-77
2021/11/27 12:04:38;;;;;;;4.68;0.90;;;;;;;;;;6156253;23;20048;-76
2021/11/27 12:07:28;;;;;;;2.05;0.82;;;;;;;;;;6170288;23;20012;-78
2021/11/27 12:10:12;;;;;;;4.10;1.13;;;;;;;;;;6150084;23;20001;-77
2021/11/27 12:12:39;;;;;;;3.00;0.85;;;;;;;;;;6142688;23;20334;-75
2021/11/27 12:15:05;;;;;;;3.08;0.80;;;;;;;;;;6171232;23;20083;-80
2021/11/27 12:17:32;;;;;;;2.67;1.35;;;;;;;;;;6171410;23;20008;-76
2021/11/27 12:20:05;;;;;;;7.28;1.33;;;;;;;;;;6152353;23;20011;-79
2021/11/27 12:22:31;;;;;;;5.20;1.40;;;;;;;;;;6169186;23;20407;-78
2021/11/27 12:25:10;;;;;;;5.90;1.20;;;;;;;;;;6170640;23;20009;-76
2021/11/27 12:27:56;;;;;;;5.03;1.63;;;;;;;;;;6170827;23;20008;-75
2021/11/27 12:30:22;;;;;;;5.13;1.33;;;;;;;;;;6152116;23;20001;-74
2021/11/27 12:32:48;;;;;;;2.88;1.23;;;;;;;;;;6170289;23;20104;-77
2021/11/27 12:35:26;;;;;;;7.15;2.03;;;;;;;;;;6169380;23;20096;-77
2021/11/27 12:38:08;;;;;;;5.18;1.38;;;;;;;;;;6170751;23;20098;-76
2021/11/27 12:40:38;;;;;;;3.97;1.35;;;;;;;;;;6150628;23;20025;-77
2021/11/27 12:43:14;;;;;;;6.38;1.50;;;;;;;;;;6142809;23;20114;-76
2021/11/27 12:45:41;;;;;;;4.28;1.20;;;;;;;;;;6170871;23;20001;-75
2021/11/27 12:48:26;;;;;;;4.68;1.45;;;;;;;;;;6171202;23;20143;-76
2021/11/27 12:51:18;;;;;;;5.15;1.88;;;;;;;;;;6152456;23;20046;-77
2021/11/27 12:54:00;;;;;;;5.55;2.35;;;;;;;;;;6134429;23;20071;-74
2021/11/27 12:56:27;;;;;;;6.18;1.90;;;;;;;;;;6168212;23;20020;-73
2021/11/27 12:58:53;;;;;;;4.88;1.85;;;;;;;;;;6161653;23;20012;-74
2021/11/27 13:01:32;;;;;;;9.55;1.67;;;;;;;;;;6158093;23;20040;-75
2021/11/27 13:03:59;;;;;;;12.40;2.35;;;;;;;;;;6170027;23;20012;-81
2021/11/27 13:08:54;;;;;;;10.00;2.22;;;;;;;;;;5042630;28;20876;-77
2021/11/27 13:11:23;;;;;;;13.50;2.63;;;;;;;;;;5045202;28;20393;-79
2021/11/27 13:13:51;;;;;;;4.70;1.33;;;;;;;;;;5047635;28;20487;-74
2021/11/27 13:16:24;;;;;;;7.25;1.60;;;;;;;;;;5055831;28;20024;-75
2021/11/27 13:18:54;;;;;;;4.10;1.33;;;;;;;;;;5042143;28;20035;-74
2021/11/27 13:21:24;;;;;;;4.65;1.40;;;;;;;;;;5050854;28;20867;-74
2021/11/27 13:23:50;;;;;;;13.25;2.00;;;;;;;;;;5040957;28;20170;-78
2021/11/27 13:26:18;;;;;;;7.22;1.85;;;;;;;;;;5041959;28;20043;-76
2021/11/27 13:28:52;;;;;;;4.72;1.50;;;;;;;;;;5037037;28;20726;-73
2021/11/27 13:31:25;;;;;;;7.40;1.73;;;;;;;;;;5034861;28;20026;-73
2021/11/27 13:33:57;;;;;;;4.82;1.38;;;;;;;;;;5040093;28;20524;-74
2021/11/27 13:36:27;;;;;;;3.70;1.48;;;;;;;;;;5043592;28;20025;-72
2021/11/27 13:38:54;;;;;;;3.28;1.42;;;;;;;;;;5037608;28;20044;-75
2021/11/27 13:41:21;;;;;;;5.07;1.63;;;;;;;;;;5038202;28;20159;-75
2021/11/27 13:43:47;;;;;;;4.13;1.40;;;;;;;;;;5039934;28;20116;-73
2021/11/27 13:46:13;;;;;;;3.75;1.20;;;;;;;;;;5041648;28;20717;-73
2021/11/27 13:48:39;;;;;;;5.30;1.25;;;;;;;;;;5034973;28;20059;-73
2021/11/27 13:51:06;;;;;;;4.75;1.10;;;;;;;;;;5036853;28;20475;-73
2021/11/27 13:53:32;;;;;;;7.28;1.23;;;;;;;;;;5046798;28;20020;-74
2021/11/27 13:55:59;;;;;;;2.20;0.93;;;;;;;;;;5041726;28;20033;-73
2021/11/27 13:58:26;;;;;;;4.72;1.50;;;;;;;;;;5040713;28;20128;-73
2021/11/27 14:00:57;;;;;;;6.95;2.35;;;;;;;;;;5034169;28;20034;-74
2021/11/27 14:03:30;;;;;;;7.88;1.90;;;;;;;;;;5049546;28;20032;-72
2021/11/27 14:05:56;;;;;;;7.95;1.55;;;;;;;;;;5046062;28;20519;-71
2021/11/27 14:08:26;;;;;;;4.85;1.50;;;;;;;;;;5036345;28;20059;-74
2021/11/27 14:11:06;;;;;;;6.30;1.48;;;;;;;;;;5035117;28;20159;-74
2021/11/27 14:13:33;;;;;;;5.88;1.67;;;;;;;;;;5040919;28;20017;-73
2021/11/27 14:15:59;;;;;;;3.30;1.38;;;;;;;;;;5040978;28;20443;-74
2021/11/27 14:18:26;;;;;;;4.05;1.40;;;;;;;;;;5035295;28;20045;-75
2021/11/27 14:20:54;;;;;;;2.88;1.20;;;;;;;;;;5018080;28;20132;-73
2021/11/27 14:23:46;;;;;;;3.03;1.10;;;;;;;;;;5028027;28;20035;-72
2021/11/27 14:26:22;;;;;;;5.85;1.08;;;;;;;;;;5027164;28;20502;-73
2021/11/27 14:28:52;;;;;;;3.92;1.20;;;;;;;;;;5023230;28;20024;-71
2021/11/27 14:31:20;;;;;;;3.78;1.02;;;;;;;;;;5020067;28;20029;-75
2021/11/27 14:33:57;;;;;;;4.07;1.60;;;;;;;;;;5020677;28;20087;-74
2021/11/27 14:36:24;;;;;;;3.03;1.77;;;;;;;;;;5021826;28;20029;-74
2021/11/27 14:38:50;;;;;;;2.38;0.73;;;;;;;;;;5021728;28;20047;-74
2021/11/27 14:41:22;;;;;;;4.80;1.00;;;;;;;;;;5017313;28;20033;-73
2021/11/27 14:43:48;;;;;;;;;;;;;;;;;;5027763;28;20132;-74
2021/11/27 14:46:32;;;;;;;9.02;1.00;;;;;;;;;;5019463;28;19913;-74
2021/11/27 14:48:59;;;;;;;4.38;0.75;;;;;;;;;;5022983;28;20124;-75